Time;durP1;ratioP1;P1;durP2;ratioP2;P2;SDS_P1;SDS_P2;PMS_P1;PMS_P2;Temp;Humidity;BMP_temperature;BMP_pressure;BME280_temperature;BME280_humidity;BME280_pressure;Samples;Min_cycle;Max_cycle;Signal;HPM_P1;HPM_P2
2021/08/02 00:02:01;;;;;;;15.88;9.00;;;18.60;86.30;;;;;;4981167;28;20493;-60
2021/08/02 00:04:30;;;;;;;14.75;9.30;;;18.60;86.30;;;;;;4980874;28;20050;-60
2021/08/02 00:07:04;;;;;;;12.13;8.75;;;18.60;86.50;;;;;;4980567;28;20027;-61
2021/08/02 00:09:32;;;;;;;12.63;9.10;;;18.50;86.30;;;;;;4964088;28;20058;-60
2021/08/02 00:12:00;;;;;;;15.02;9.02;;;18.50;86.30;;;;;;4979204;28;20111;-61
2021/08/02 00:14:25;;;;;;;13.07;8.15;;;18.50;86.30;;;;;;4980300;28;20538;-60
2021/08/02 00:16:51;;;;;;;12.35;8.35;;;18.50;86.30;;;;;;4980895;28;20061;-60
2021/08/02 00:19:17;;;;;;;10.82;8.40;;;18.50;86.30;;;;;;4981342;28;20038;-60
2021/08/02 00:21:43;;;;;;;12.43;9.13;;;18.50;87.00;;;;;;4981942;28;20038;-60
2021/08/02 00:24:08;;;;;;;13.93;8.45;;;18.50;86.30;;;;;;4979998;28;20034;-60
2021/08/02 00:26:34;;;;;;;11.15;8.80;;;18.50;86.30;;;;;;4982053;28;20026;-61
2021/08/02 00:29:00;;;;;;;12.93;8.82;;;18.40;86.20;;;;;;4983290;28;20944;-60
2021/08/02 00:31:25;;;;;;;14.13;10.60;;;18.50;86.30;;;;;;4985258;28;20446;-61
2021/08/02 00:33:51;;;;;;;14.63;9.88;;;18.40;86.20;;;;;;4984047;28;20121;-61
2021/08/02 00:36:35;;;;;;;11.63;9.45;;;18.40;86.30;;;;;;4981980;28;20054;-60
2021/08/02 00:39:30;;;;;;;10.93;9.15;;;18.40;86.30;;;;;;4984610;28;20133;-60
2021/08/02 00:42:08;;;;;;;12.43;9.48;;;18.40;86.50;;;;;;4955331;28;20042;-61
2021/08/02 00:44:56;;;;;;;11.93;9.00;;;18.30;86.50;;;;;;4985719;28;20022;-60
2021/08/02 00:47:23;;;;;;;12.23;9.57;;;18.30;86.50;;;;;;4970196;28;20358;-60
2021/08/02 00:49:54;;;;;;;9.38;8.30;;;18.40;86.50;;;;;;4982565;28;20046;-60
2021/08/02 00:52:20;;;;;;;11.82;9.40;;;18.30;86.40;;;;;;4983767;28;20034;-61
2021/08/02 00:54:45;;;;;;;10.13;8.52;;;18.30;86.40;;;;;;4983679;28;20619;-61
2021/08/02 00:57:11;;;;;;;13.13;8.95;;;18.30;86.40;;;;;;4985390;28;20116;-60
2021/08/02 00:59:36;;;;;;;14.95;9.27;;;18.30;86.40;;;;;;4984633;28;20394;-60
2021/08/02 01:02:03;;;;;;;11.80;9.07;;;18.30;86.50;;;;;;4983249;28;20026;-60
2021/08/02 01:04:28;;;;;;;9.73;8.70;;;18.30;86.50;;;;;;4983799;28;20010;-61
2021/08/02 01:06:54;;;;;;;9.65;8.65;;;18.30;86.50;;;;;;4984502;28;20033;-60
2021/08/02 01:09:20;;;;;;;10.02;8.73;;;18.30;86.40;;;;;;4984119;28;20042;-61
2021/08/02 01:11:46;;;;;;;10.27;8.55;;;18.30;86.50;;;;;;4983630;28;20046;-61
2021/08/02 01:14:11;;;;;;;11.02;8.40;;;18.30;86.60;;;;;;4984760;28;20046;-60
2021/08/02 01:16:38;;;;;;;11.27;9.00;;;18.30;86.60;;;;;;4983876;28;20097;-61
2021/08/02 01:19:08;;;;;;;9.02;7.90;;;18.20;86.50;;;;;;4982782;28;20045;-60
2021/08/02 01:21:36;;;;;;;10.05;8.13;;;18.20;86.60;;;;;;4985102;28;20026;-60
2021/08/02 01:24:01;;;;;;;8.65;7.85;;;18.20;86.60;;;;;;4984465;28;20041;-60
2021/08/02 01:26:42;;;;;;;10.27;8.48;;;18.20;86.70;;;;;;4984094;28;20030;-60
2021/08/02 01:29:45;;;;;;;9.95;7.93;;;18.20;86.90;;;;;;4984176;28;20057;-60
2021/08/02 01:32:11;;;;;;;10.63;7.97;;;18.20;86.90;;;;;;4983723;28;20069;-60
2021/08/02 01:34:36;;;;;;;9.20;7.70;;;18.10;86.90;;;;;;4984473;28;20116;-61
2021/08/02 01:37:02;;;;;;;10.40;9.30;;;18.10;87.10;;;;;;4969530;28;20560;-60
2021/08/02 01:39:28;;;;;;;11.48;8.82;;;18.10;87.10;;;;;;4982598;28;20058;-61
2021/08/02 01:41:53;;;;;;;12.45;9.43;;;18.10;87.20;;;;;;4982112;28;20030;-61
2021/08/02 01:44:19;;;;;;;10.90;9.20;;;18.10;87.20;;;;;;4986134;28;20030;-60
2021/08/02 01:47:00;;;;;;;10.63;9.52;;;18.10;87.30;;;;;;4985168;28;20037;-61
2021/08/02 01:49:31;;;;;;;10.70;9.60;;;18.10;87.30;;;;;;4984640;28;20026;-60
2021/08/02 01:51:57;;;;;;;9.93;8.38;;;18.10;87.30;;;;;;4983485;28;20102;-61
2021/08/02 01:54:27;;;;;;;12.25;9.15;;;18.10;87.30;;;;;;4981826;28;20101;-61
2021/08/02 01:57:08;;;;;;;11.88;8.85;;;18.10;87.40;;;;;;4983119;28;20092;-61
2021/08/02 01:59:40;;;;;;;10.77;9.32;;;18.00;87.40;;;;;;4983978;28;20101;-61
2021/08/02 02:02:08;;;;;;;10.25;9.18;;;18.00;87.40;;;;;;4982745;28;20829;-61
2021/08/02 02:04:49;;;;;;;10.48;8.68;;;18.00;87.60;;;;;;4967344;28;20042;-61
2021/08/02 02:07:14;;;;;;;10.35;9.27;;;18.00;88.10;;;;;;4981990;28;20046;-60
2021/08/02 02:09:40;;;;;;;11.88;8.85;;;18.00;87.50;;;;;;4982619;28;20034;-60
2021/08/02 02:12:05;;;;;;;9.45;8.43;;;18.00;87.60;;;;;;4983433;28;20149;-61
2021/08/02 02:14:33;;;;;;;11.80;9.75;;;18.00;87.60;;;;;;4984894;28;20034;-61
2021/08/02 02:16:59;;;;;;;10.68;9.35;;;18.00;87.70;;;;;;4984696;28;20038;-61
2021/08/02 02:19:25;;;;;;;9.65;8.75;;;17.90;87.80;;;;;;4982507;28;20030;-61
2021/08/02 02:21:51;;;;;;;10.15;9.13;;;17.90;87.80;;;;;;4966300;28;20413;-60
2021/08/02 02:24:16;;;;;;;9.77;8.73;;;17.90;87.80;;;;;;4983563;28;20031;-61
2021/08/02 02:26:42;;;;;;;11.07;8.63;;;17.90;87.80;;;;;;4983458;28;20061;-60
2021/08/02 02:29:11;;;;;;;9.63;8.77;;;17.90;87.90;;;;;;4978579;28;20031;-60
2021/08/02 02:31:36;;;;;;;8.88;8.02;;;17.90;87.90;;;;;;4980389;28;20526;-60
2021/08/02 02:34:04;;;;;;;11.65;9.07;;;17.90;87.90;;;;;;4980230;28;20126;-61
2021/08/02 02:36:29;;;;;;;13.32;8.57;;;17.90;88.00;;;;;;4980566;28;20046;-61
2021/08/02 02:38:55;;;;;;;9.65;8.63;;;17.90;88.00;;;;;;4977689;28;20092;-60
2021/08/02 02:41:20;;;;;;;12.95;9.07;;;17.80;87.90;;;;;;4964765;28;20034;-60
2021/08/02 02:43:49;;;;;;;10.35;9.32;;;17.90;88.10;;;;;;4981057;28;20724;-60
2021/08/02 02:46:18;;;;;;;12.02;9.77;;;17.80;88.10;;;;;;4979411;28;20130;-60
2021/08/02 02:48:47;;;;;;;9.82;8.82;;;17.80;88.10;;;;;;4980335;28;20046;-60
2021/08/02 02:51:12;;;;;;;10.38;8.80;;;17.80;88.20;;;;;;4979028;28;20520;-61
2021/08/02 02:53:41;;;;;;;10.15;9.05;;;17.80;88.10;;;;;;4981286;28;20057;-60
2021/08/02 02:56:10;;;;;;;11.50;9.70;;;17.80;88.20;;;;;;4972890;28;20030;-60
2021/08/02 02:58:36;;;;;;;10.48;9.07;;;17.80;88.20;;;;;;4979856;28;20037;-61
2021/08/02 03:01:03;;;;;;;11.93;9.27;;;17.80;88.30;;;;;;4980922;28;20101;-61
2021/08/02 03:03:28;;;;;;;9.50;8.63;;;17.80;88.40;;;;;;4982506;28;20577;-61
2021/08/02 03:05:54;;;;;;;12.52;9.52;;;17.80;88.40;;;;;;4983667;28;20113;-60
2021/08/02 03:08:21;;;;;;;11.77;9.20;;;17.80;88.50;;;;;;4982461;28;20528;-60
2021/08/02 03:10:48;;;;;;;11.57;9.18;;;17.80;88.50;;;;;;4980866;28;20022;-60
2021/08/02 03:13:13;;;;;;;10.88;9.80;;;17.80;88.60;;;;;;4981186;28;20487;-60
2021/08/02 03:15:39;;;;;;;11.68;9.55;;;17.70;88.50;;;;;;4983056;28;20157;-61
2021/08/02 03:18:04;;;;;;;10.55;8.80;;;17.70;88.60;;;;;;4981031;28;20022;-61
2021/08/02 03:20:30;;;;;;;9.55;8.27;;;17.70;88.60;;;;;;4983466;28;20046;-60
2021/08/02 03:23:16;;;;;;;10.90;9.18;;;17.70;88.60;;;;;;4982345;28;20042;-60
2021/08/02 03:25:41;;;;;;;;;;;17.70;88.60;;;;;;4967368;28;20101;-61
2021/08/02 03:28:18;;;;;;;11.07;8.95;;;17.70;88.80;;;;;;4983932;28;19929;-61
2021/08/02 03:30:44;;;;;;;9.98;8.98;;;17.70;88.80;;;;;;4983622;28;20066;-60
2021/08/02 03:33:13;;;;;;;10.45;8.60;;;17.70;88.80;;;;;;4981726;28;20124;-60
2021/08/02 03:35:40;;;;;;;12.23;9.52;;;17.70;88.90;;;;;;4983423;28;20022;-61
2021/08/02 03:38:06;;;;;;;9.63;8.63;;;17.60;88.80;;;;;;4978439;28;20458;-61
2021/08/02 03:40:32;;;;;;;9.95;8.90;;;17.60;88.90;;;;;;4981235;28;20057;-60
2021/08/02 03:42:57;;;;;;;10.10;9.02;;;17.60;89.00;;;;;;4981334;28;20030;-61
2021/08/02 03:45:23;;;;;;;10.98;9.88;;;17.60;89.10;;;;;;4983829;28;20100;-60
2021/08/02 03:47:49;;;;;;;11.40;9.27;;;17.60;89.20;;;;;;4981725;28;20572;-60
2021/08/02 03:50:14;;;;;;;11.00;8.88;;;17.60;89.10;;;;;;4965733;28;20451;-61
2021/08/02 03:52:40;;;;;;;11.50;8.90;;;17.60;89.20;;;;;;4981339;28;20046;-61
2021/08/02 03:55:06;;;;;;;12.18;9.45;;;17.60;89.20;;;;;;4983622;28;20041;-60
2021/08/02 03:57:32;;;;;;;9.93;8.93;;;17.60;89.30;;;;;;4981611;28;20073;-60
2021/08/02 03:59:57;;;;;;;12.88;9.52;;;17.60;89.30;;;;;;4982677;28;20084;-60
2021/08/02 04:02:23;;;;;;;10.32;9.15;;;17.60;89.50;;;;;;4982304;28;20496;-60
2021/08/02 04:04:48;;;;;;;13.10;9.27;;;17.60;89.30;;;;;;4995994;28;20774;-61
2021/08/02 04:07:14;;;;;;;11.30;9.10;;;17.60;89.30;;;;;;4980467;28;20084;-60
2021/08/02 04:09:39;;;;;;;12.65;9.60;;;17.60;89.30;;;;;;4979644;28;20030;-61
2021/08/02 04:12:06;;;;;;;10.40;9.38;;;17.60;89.40;;;;;;4983651;28;20022;-60
2021/08/02 04:14:31;;;;;;;10.27;9.23;;;17.60;89.40;;;;;;4982900;28;20030;-60
2021/08/02 04:16:57;;;;;;;13.27;9.57;;;17.60;89.40;;;;;;4981666;28;20081;-61
2021/08/02 04:19:22;;;;;;;10.20;9.23;;;17.60;89.50;;;;;;4981405;28;20073;-60
2021/08/02 04:21:48;;;;;;;10.25;9.25;;;17.50;89.50;;;;;;4982243;28;20026;-61
2021/08/02 04:24:13;;;;;;;11.00;9.88;;;17.50;89.50;;;;;;4981354;28;20483;-60
2021/08/02 04:26:39;;;;;;;10.70;8.68;;;17.50;89.50;;;;;;4981506;28;20049;-61
2021/08/02 04:29:04;;;;;;;11.25;9.23;;;17.50;89.50;;;;;;4981583;28;20089;-60
2021/08/02 04:31:31;;;;;;;12.05;9.55;;;17.50;89.60;;;;;;4995611;28;20097;-61
2021/08/02 04:33:56;;;;;;;10.38;9.38;;;17.50;89.60;;;;;;4980865;28;20392;-60
2021/08/02 04:36:22;;;;;;;11.77;9.85;;;17.40;89.70;;;;;;4979919;28;20042;-61
2021/08/02 04:38:47;;;;;;;10.45;9.35;;;17.50;89.80;;;;;;4979797;28;20134;-61
2021/08/02 04:41:13;;;;;;;11.48;9.60;;;17.40;89.80;;;;;;4981630;28;20031;-60
2021/08/02 04:43:39;;;;;;;10.77;9.00;;;17.40;90.00;;;;;;4981282;28;20038;-60
2021/08/02 04:46:04;;;;;;;10.52;9.52;;;17.40;90.00;;;;;;4980515;28;20041;-60
2021/08/02 04:48:30;;;;;;;10.35;9.35;;;17.40;90.00;;;;;;4981308;28;20038;-61
2021/08/02 04:50:55;;;;;;;11.38;10.27;;;17.40;90.00;;;;;;4983094;28;20042;-60
2021/08/02 04:53:21;;;;;;;13.70;9.50;;;17.40;90.00;;;;;;4981796;28;20466;-60
2021/08/02 04:55:46;;;;;;;11.50;10.27;;;17.40;90.00;;;;;;4981366;28;20023;-60
2021/08/02 04:58:12;;;;;;;10.52;9.43;;;17.40;90.00;;;;;;4982419;28;20125;-61
2021/08/02 05:00:37;;;;;;;10.98;9.82;;;17.40;90.10;;;;;;4982163;28;20026;-60
2021/08/02 05:03:03;;;;;;;11.23;10.07;;;17.40;90.10;;;;;;4980861;28;20367;-60
2021/08/02 05:05:29;;;;;;;11.02;9.93;;;17.40;90.10;;;;;;4980458;28;20031;-60
2021/08/02 05:07:54;;;;;;;11.82;10.60;;;17.40;90.10;;;;;;4979748;28;20033;-60
2021/08/02 05:10:20;;;;;;;12.52;10.32;;;17.40;90.00;;;;;;4978696;28;20153;-60
2021/08/02 05:12:45;;;;;;;10.80;9.70;;;17.40;90.00;;;;;;4981072;28;20545;-61
2021/08/02 05:15:11;;;;;;;15.45;9.95;;;17.40;90.00;;;;;;4986867;28;20121;-60
2021/08/02 05:17:37;;;;;;;11.02;9.93;;;17.40;90.00;;;;;;4984661;28;20038;-61
2021/08/02 05:20:04;;;;;;;10.40;9.40;;;17.40;90.00;;;;;;4985253;28;20053;-60
2021/08/02 05:22:29;;;;;;;10.95;9.80;;;17.40;90.00;;;;;;4982860;28;20044;-60
2021/08/02 05:24:55;;;;;;;10.75;9.65;;;17.40;90.10;;;;;;4986022;28;20144;-61
2021/08/02 05:27:20;;;;;;;11.00;9.68;;;17.40;90.10;;;;;;4982190;28;20039;-60
2021/08/02 05:29:46;;;;;;;11.20;10.10;;;17.40;90.10;;;;;;4982934;28;20030;-61
2021/08/02 05:32:11;;;;;;;11.25;10.02;;;17.40;90.10;;;;;;4981251;28;20390;-60
2021/08/02 05:34:40;;;;;;;10.43;9.30;;;17.40;90.10;;;;;;4981311;28;20402;-61
2021/08/02 05:37:09;;;;;;;12.95;10.50;;;17.40;90.10;;;;;;4981760;28;20041;-60
2021/08/02 05:39:35;;;;;;;12.13;10.27;;;17.40;90.10;;;;;;4984440;28;20493;-60
2021/08/02 05:42:01;;;;;;;10.27;9.27;;;17.40;90.10;;;;;;4983692;28;20631;-60
2021/08/02 05:44:26;;;;;;;11.65;9.50;;;17.50;90.10;;;;;;4986008;28;20026;-61
2021/08/02 05:46:52;;;;;;;10.93;9.88;;;17.50;90.10;;;;;;4982997;28;20042;-61
2021/08/02 05:49:17;;;;;;;10.93;9.85;;;17.50;90.10;;;;;;4983450;28;20066;-60
2021/08/02 05:51:43;;;;;;;13.70;10.50;;;17.50;90.20;;;;;;4985708;28;20034;-60
2021/08/02 05:54:08;;;;;;;12.02;10.60;;;17.50;90.20;;;;;;4985081;28;20109;-61
2021/08/02 05:56:34;;;;;;;11.23;10.13;;;17.50;90.20;;;;;;4985464;28;20065;-60
2021/08/02 05:58:59;;;;;;;11.35;10.25;;;17.50;90.20;;;;;;4985474;28;20537;-60
2021/08/02 06:01:25;;;;;;;10.57;9.57;;;17.50;90.20;;;;;;4984291;28;20501;-60
2021/08/02 06:03:50;;;;;;;10.90;9.80;;;17.50;90.20;;;;;;4983039;28;20097;-60
2021/08/02 06:06:16;;;;;;;10.65;9.30;;;17.50;90.10;;;;;;4983073;28;20481;-60
2021/08/02 06:08:42;;;;;;;13.73;10.55;;;17.50;90.20;;;;;;4983073;28;20403;-61
2021/08/02 06:11:08;;;;;;;11.15;10.00;;;17.50;90.20;;;;;;4984853;28;20019;-63
2021/08/02 06:13:33;;;;;;;11.80;10.63;;;17.60;90.20;;;;;;4983408;28;20027;-61
2021/08/02 06:15:59;;;;;;;14.05;10.23;;;17.60;90.10;;;;;;4998124;28;20568;-61
2021/08/02 06:18:25;;;;;;;15.60;10.07;;;17.60;90.10;;;;;;4981825;28;20426;-61
2021/08/02 06:20:51;;;;;;;13.15;10.07;;;17.60;90.00;;;;;;4983240;28;20034;-62
2021/08/02 06:23:16;;;;;;;10.05;9.05;;;17.60;90.00;;;;;;4998554;28;20034;-60
2021/08/02 06:25:42;;;;;;;10.82;9.35;;;17.60;89.90;;;;;;4981277;28;20461;-60
2021/08/02 06:28:07;;;;;;;12.18;9.45;;;17.60;89.80;;;;;;4982041;28;20038;-61
2021/08/02 06:30:33;;;;;;;13.90;9.43;;;17.70;89.80;;;;;;4981288;28;20494;-61
2021/08/02 06:32:58;;;;;;;11.35;9.45;;;17.70;89.70;;;;;;4981839;28;20552;-60
2021/08/02 06:35:24;;;;;;;13.15;9.60;;;17.70;89.70;;;;;;4998683;28;20474;-60
2021/08/02 06:37:50;;;;;;;12.85;9.55;;;17.70;89.60;;;;;;4983448;28;20085;-60
2021/08/02 06:40:15;;;;;;;11.00;9.48;;;17.70;89.60;;;;;;4981383;28;20503;-61
2021/08/02 06:42:41;;;;;;;10.52;8.90;;;17.70;89.60;;;;;;4965147;28;20038;-60
2021/08/02 06:45:07;;;;;;;13.10;9.52;;;17.80;89.60;;;;;;4982622;28;20466;-61
2021/08/02 06:47:33;;;;;;;23.40;9.60;;;17.80;89.70;;;;;;4953857;28;20022;-62
2021/08/02 06:49:58;;;;;;;21.20;10.10;;;17.80;89.60;;;;;;4983875;28;20061;-63
2021/08/02 06:52:24;;;;;;;18.05;9.68;;;17.80;89.60;;;;;;4982850;28;20042;-62
2021/08/02 06:54:49;;;;;;;20.83;9.57;;;17.80;89.80;;;;;;4982549;28;20069;-61
2021/08/02 06:57:15;;;;;;;21.02;9.85;;;17.80;89.80;;;;;;4982012;28;20034;-63
2021/08/02 06:59:40;;;;;;;16.92;9.35;;;17.90;90.00;;;;;;4982908;28;20034;-62
2021/08/02 07:02:06;;;;;;;25.88;9.63;;;17.90;90.00;;;;;;4983834;28;20034;-63
2021/08/02 07:04:32;;;;;;;12.75;9.05;;;17.90;89.80;;;;;;4980618;28;20757;-61
2021/08/02 07:06:57;;;;;;;16.40;9.02;;;18.00;89.90;;;;;;4981989;28;20022;-61
2021/08/02 07:09:23;;;;;;;17.75;9.13;;;17.90;90.00;;;;;;4980581;28;20048;-60
2021/08/02 07:11:48;;;;;;;16.35;8.38;;;18.00;90.00;;;;;;4983170;28;20026;-61
2021/08/02 07:14:14;;;;;;;23.30;8.68;;;17.90;90.00;;;;;;4982544;28;20478;-61
2021/08/02 07:16:39;;;;;;;19.33;8.95;;;17.90;90.10;;;;;;4975730;28;20065;-60
2021/08/02 07:19:05;;;;;;;24.52;9.38;;;17.90;90.10;;;;;;4979082;28;20026;-61
2021/08/02 07:21:30;;;;;;;27.75;9.13;;;17.90;90.20;;;;;;4981756;28;20462;-61
2021/08/02 07:23:56;;;;;;;16.92;8.73;;;17.90;90.20;;;;;;4996306;28;20129;-61
2021/08/02 07:26:22;;;;;;;27.30;9.70;;;17.90;90.30;;;;;;4977485;28;20478;-60
2021/08/02 07:28:48;;;;;;;22.92;9.10;;;17.90;90.50;;;;;;4979286;28;20140;-61
2021/08/02 07:31:15;;;;;;;15.45;9.13;;;17.90;90.60;;;;;;4976766;28;20109;-60
2021/08/02 07:33:40;;;;;;;19.63;10.35;;;17.90;90.60;;;;;;4981453;28;20173;-61
2021/08/02 07:36:07;;;;;;;16.95;9.95;;;17.90;90.80;;;;;;4982099;28;20530;-60
2021/08/02 07:38:34;;;;;;;13.68;9.05;;;18.00;90.80;;;;;;4980878;28;20105;-60
2021/08/02 07:40:59;;;;;;;22.50;9.60;;;18.00;90.80;;;;;;4980406;28;20125;-61
2021/08/02 07:43:25;;;;;;;18.90;9.13;;;18.00;90.70;;;;;;4981400;28;20405;-61
2021/08/02 07:45:50;;;;;;;12.32;8.63;;;18.10;90.60;;;;;;4979463;28;20074;-60
2021/08/02 07:48:16;;;;;;;16.98;8.75;;;18.10;90.50;;;;;;4981132;28;20507;-61
2021/08/02 07:50:41;;;;;;;17.08;8.77;;;18.10;90.30;;;;;;4981140;28;20608;-60
2021/08/02 07:53:07;;;;;;;18.38;9.13;;;18.10;90.30;;;;;;4982310;28;20533;-60
2021/08/02 07:55:32;;;;;;;21.15;8.40;;;18.20;90.20;;;;;;4981517;28;20593;-60
2021/08/02 07:57:58;;;;;;;18.48;8.13;;;18.20;90.10;;;;;;4980929;28;20575;-60
2021/08/02 08:00:23;;;;;;;21.20;8.23;;;18.20;90.00;;;;;;4982221;28;20493;-60
2021/08/02 08:02:49;;;;;;;251.90;25.13;;;18.20;89.70;;;;;;4981911;28;20398;-60
2021/08/02 08:05:14;;;;;;;68.85;11.23;;;18.30;89.30;;;;;;4982385;28;20042;-61
2021/08/02 08:07:47;;;;;;;19.20;7.90;;;18.30;89.10;;;;;;4983411;28;20030;-60
2021/08/02 08:10:14;;;;;;;20.75;7.65;;;18.30;89.00;;;;;;4981401;28;20027;-61
2021/08/02 08:12:40;;;;;;;23.63;7.70;;;18.30;88.80;;;;;;4980974;28;20053;-60
2021/08/02 08:15:06;;;;;;;23.17;7.57;;;18.40;88.80;;;;;;4980447;28;20176;-60
2021/08/02 08:17:32;;;;;;;24.90;8.52;;;18.40;88.50;;;;;;4980833;28;20065;-60
2021/08/02 08:19:57;;;;;;;34.40;7.78;;;18.40;88.50;;;;;;4981687;28;20046;-60
2021/08/02 08:22:24;;;;;;;19.85;7.47;;;18.40;88.50;;;;;;4996763;28;20085;-60
2021/08/02 08:24:50;;;;;;;21.05;7.50;;;18.50;88.40;;;;;;4979156;28;20419;-60
2021/08/02 08:27:16;;;;;;;23.20;7.05;;;18.50;88.40;;;;;;4979698;28;20047;-60
2021/08/02 08:29:41;;;;;;;19.50;6.50;;;18.50;88.50;;;;;;4980275;28;20065;-60
2021/08/02 08:32:07;;;;;;;23.63;7.68;;;18.50;88.20;;;;;;4979526;28;20030;-60
2021/08/02 08:34:33;;;;;;;28.83;7.47;;;18.60;88.10;;;;;;4979799;28;20417;-60
2021/08/02 08:36:58;;;;;;;19.75;7.07;;;18.60;87.80;;;;;;4979121;28;20027;-60
2021/08/02 08:39:24;;;;;;;28.98;7.53;;;18.60;87.70;;;;;;4979719;28;20857;-60
2021/08/02 08:41:51;;;;;;;19.65;6.47;;;18.60;87.70;;;;;;4980143;28;20038;-60
2021/08/02 08:44:16;;;;;;;17.10;6.80;;;18.70;87.60;;;;;;4980477;28;20104;-60
2021/08/02 08:46:42;;;;;;;18.92;6.22;;;18.70;87.60;;;;;;4981275;28;20046;-60
2021/08/02 08:49:08;;;;;;;19.17;6.40;;;18.70;87.50;;;;;;4981840;28;20073;-60
2021/08/02 08:51:33;;;;;;;21.33;7.65;;;18.70;87.40;;;;;;4998547;28;20076;-60
2021/08/02 08:53:59;;;;;;;27.35;7.68;;;18.70;87.30;;;;;;4982311;28;20537;-60
2021/08/02 08:56:24;;;;;;;26.75;6.53;;;18.70;87.20;;;;;;5000393;28;20418;-60
2021/08/02 08:58:50;;;;;;;24.13;7.28;;;18.80;87.50;;;;;;4983681;28;20117;-60
2021/08/02 09:01:24;;;;;;;15.93;6.72;;;18.80;87.50;;;;;;4985022;28;20146;-61
2021/08/02 09:03:51;;;;;;;27.48;6.18;;;18.80;87.40;;;;;;4980667;28;20810;-60
2021/08/02 09:06:16;;;;;;;20.15;6.13;;;18.90;87.10;;;;;;4964423;28;20057;-60
2021/08/02 09:08:42;;;;;;;30.40;8.27;;;18.90;87.00;;;;;;4984670;28;20039;-60
2021/08/02 09:11:08;;;;;;;23.65;7.30;;;18.90;87.30;;;;;;4953122;28;20030;-60
2021/08/02 09:13:35;;;;;;;48.28;8.73;;;18.90;87.20;;;;;;5000308;28;20045;-59
2021/08/02 09:16:30;;;;;;;23.73;7.63;;;19.00;87.30;;;;;;4981262;28;20493;-59
2021/08/02 09:19:00;;;;;;;27.80;7.72;;;19.00;86.90;;;;;;4966577;28;20058;-59
2021/08/02 09:21:26;;;;;;;29.10;6.82;;;19.00;86.90;;;;;;4979979;28;20030;-59
2021/08/02 09:23:54;;;;;;;35.60;6.93;;;19.00;86.70;;;;;;4980534;28;20165;-58
2021/08/02 09:26:33;;;;;;;20.48;7.20;;;19.00;86.40;;;;;;4967517;28;20038;-59
2021/08/02 09:28:58;;;;;;;17.85;5.88;;;19.10;86.30;;;;;;4966117;28;20030;-59
2021/08/02 09:31:37;;;;;;;23.25;6.43;;;19.10;86.00;;;;;;4983846;28;20205;-59
2021/08/02 09:34:05;;;;;;;23.75;6.18;;;19.10;85.90;;;;;;4980734;28;20579;-60
2021/08/02 09:36:44;;;;;;;26.45;7.55;;;19.20;85.90;;;;;;4983557;28;20121;-60
2021/08/02 09:39:12;;;;;;;25.00;6.80;;;19.20;86.00;;;;;;4981870;28;20320;-60
2021/08/02 09:41:37;;;;;;;22.02;6.35;;;19.20;85.90;;;;;;4966570;28;20033;-60
2021/08/02 09:44:04;;;;;;;22.90;6.68;;;19.20;85.50;;;;;;4983375;28;20614;-60
2021/08/02 09:46:30;;;;;;;26.25;7.03;;;19.20;85.40;;;;;;4981197;28;20061;-60
2021/08/02 09:49:03;;;;;;;33.40;6.88;;;19.20;85.20;;;;;;4980994;28;20038;-59
2021/08/02 09:51:40;;;;;;;20.88;6.15;;;19.20;85.10;;;;;;4981786;28;20057;-60
2021/08/02 09:54:05;;;;;;;23.77;5.80;;;19.20;84.60;;;;;;4983300;28;20030;-58
2021/08/02 09:56:31;;;;;;;99.30;13.18;;;19.30;84.80;;;;;;4983879;28;20509;-59
2021/08/02 09:58:56;;;;;;;27.35;5.93;;;19.20;84.30;;;;;;4982015;28;20172;-59
2021/08/02 10:01:22;;;;;;;21.88;7.10;;;19.30;84.10;;;;;;4979890;28;20092;-60
2021/08/02 10:03:47;;;;;;;27.90;6.50;;;19.30;84.20;;;;;;4983380;28;20042;-59
2021/08/02 10:06:13;;;;;;;24.45;6.20;;;19.30;83.60;;;;;;4983986;28;20030;-59
2021/08/02 10:08:39;;;;;;;19.52;5.57;;;19.30;83.20;;;;;;4994804;28;20039;-59
2021/08/02 10:11:05;;;;;;;22.27;4.97;;;19.40;82.70;;;;;;4982266;28;20038;-60
2021/08/02 10:13:37;;;;;;;28.00;5.45;;;19.40;82.00;;;;;;4981716;28;20042;-59
2021/08/02 10:16:11;;;;;;;15.27;4.47;;;19.50;81.40;;;;;;4963751;28;20038;-60
2021/08/02 10:18:37;;;;;;;17.58;4.18;;;19.40;81.60;;;;;;4967062;28;20080;-60
2021/08/02 10:21:07;;;;;;;17.77;4.03;;;19.50;80.80;;;;;;4981120;28;20038;-60
2021/08/02 10:23:32;;;;;;;20.80;4.07;;;19.50;80.90;;;;;;4978662;28;20113;-60
2021/08/02 10:25:58;;;;;;;20.63;5.72;;;19.50;80.30;;;;;;4996575;28;20164;-60
2021/08/02 10:28:23;;;;;;;19.17;4.30;;;19.50;80.30;;;;;;4980125;28;20168;-62
2021/08/02 10:31:03;;;;;;;19.25;4.95;;;19.50;80.30;;;;;;4981719;28;20605;-59
2021/08/02 10:33:47;;;;;;;19.42;4.90;;;19.50;80.30;;;;;;4983168;28;20037;-60
2021/08/02 10:36:16;;;;;;;25.00;5.63;;;19.60;80.10;;;;;;4981773;28;20088;-60
2021/08/02 10:38:49;;;;;;;14.75;5.30;;;19.60;79.80;;;;;;4980874;28;20084;-59
2021/08/02 10:41:24;;;;;;;40.13;7.05;;;19.70;79.70;;;;;;4980153;28;20204;-60
2021/08/02 10:43:50;;;;;;;23.60;4.93;;;19.70;79.60;;;;;;4984347;28;20037;-60
2021/08/02 10:46:26;;;;;;;16.00;5.25;;;19.70;79.50;;;;;;4970168;28;20046;-60
2021/08/02 10:48:53;;;;;;;21.63;4.40;;;19.80;79.50;;;;;;4973242;28;20049;-60
2021/08/02 10:51:23;;;;;;;22.75;4.53;;;19.80;79.20;;;;;;4982817;28;20276;-60
2021/08/02 10:54:02;;;;;;;20.40;4.70;;;19.80;78.70;;;;;;4980791;28;20042;-60
2021/08/02 10:56:29;;;;;;;18.50;4.47;;;19.90;78.60;;;;;;4980506;28;20030;-60
2021/08/02 10:58:56;;;;;;;18.05;4.38;;;20.00;78.40;;;;;;4980268;28;20812;-60
2021/08/02 11:01:24;;;;;;;14.65;4.03;;;20.00;78.10;;;;;;4981059;28;20030;-60
2021/08/02 11:03:49;;;;;;;17.95;5.00;;;20.30;77.80;;;;;;4976532;28;20520;-60
2021/08/02 11:06:17;;;;;;;24.38;5.10;;;20.20;77.40;;;;;;4979396;28;20038;-60
2021/08/02 11:08:47;;;;;;;16.02;4.70;;;20.20;77.30;;;;;;4980067;28;20188;-60
2021/08/02 11:11:24;;;;;;;47.15;6.55;;;20.20;76.80;;;;;;4980581;28;20034;-60
2021/08/02 11:13:50;;;;;;;39.45;6.35;;;20.30;76.50;;;;;;4969441;28;20053;-60
2021/08/02 11:16:16;;;;;;;36.97;5.82;;;20.40;76.50;;;;;;4980682;28;20134;-59
2021/08/02 11:18:43;;;;;;;24.98;4.72;;;20.50;75.80;;;;;;4980159;28;20049;-60
2021/08/02 11:21:19;;;;;;;25.50;4.97;;;20.50;75.60;;;;;;4979294;28;20029;-60
2021/08/02 11:23:44;;;;;;;;;;;20.60;75.30;;;;;;4980826;28;20035;-60
2021/08/02 11:26:11;;;;;;;19.77;4.40;;;20.60;75.00;;;;;;4980104;28;19920;-60
2021/08/02 11:28:43;;;;;;;26.58;4.60;;;20.70;74.90;;;;;;4980022;28;20112;-60
2021/08/02 11:31:10;;;;;;;20.02;4.30;;;20.70;75.00;;;;;;4978993;28;20061;-59
2021/08/02 11:33:36;;;;;;;32.03;4.57;;;20.70;74.80;;;;;;4978697;28;20026;-59
2021/08/02 11:36:03;;;;;;;26.48;4.60;;;20.80;74.70;;;;;;4979481;28;20026;-60
2021/08/02 11:38:34;;;;;;;9.90;3.72;;;20.80;74.60;;;;;;4980026;28;20053;-59
2021/08/02 11:41:00;;;;;;;21.65;4.22;;;20.80;74.50;;;;;;4979313;28;20029;-60
2021/08/02 11:43:25;;;;;;;49.80;7.47;;;20.90;74.10;;;;;;4981909;28;20034;-60
2021/08/02 11:45:51;;;;;;;45.83;7.32;;;21.00;74.20;;;;;;4979085;28;20735;-60
2021/08/02 11:48:17;;;;;;;173.30;16.08;;;21.10;74.00;;;;;;4978260;28;20034;-59
2021/08/02 11:50:42;;;;;;;53.15;8.07;;;21.10;73.50;;;;;;4980483;28;20034;-60
2021/08/02 11:53:09;;;;;;;87.85;10.30;;;21.20;73.30;;;;;;4979954;28;20073;-60
2021/08/02 11:55:35;;;;;;;50.38;7.28;;;21.20;73.20;;;;;;4981002;28;20039;-60
2021/08/02 11:58:01;;;;;;;58.25;7.40;;;21.20;72.90;;;;;;4980864;28;20596;-59
2021/08/02 12:00:27;;;;;;;66.45;7.53;;;21.20;72.60;;;;;;4981574;28;20041;-60
2021/08/02 12:02:52;;;;;;;39.38;6.65;;;21.30;73.00;;;;;;4979181;28;20347;-60
2021/08/02 12:05:25;;;;;;;38.35;5.90;;;21.30;72.80;;;;;;4980165;28;20031;-60
2021/08/02 12:07:51;;;;;;;54.30;6.57;;;21.20;72.60;;;;;;4979132;28;20058;-59
2021/08/02 12:10:23;;;;;;;51.03;7.20;;;21.30;72.60;;;;;;4979976;28;20379;-60
2021/08/02 12:13:11;;;;;;;41.58;5.65;;;21.30;72.70;;;;;;4979221;28;20478;-60
2021/08/02 12:15:48;;;;;;;36.55;6.15;;;21.30;72.40;;;;;;4980821;28;20136;-60
2021/08/02 12:18:28;;;;;;;44.40;6.18;;;21.30;72.90;;;;;;4963357;28;20089;-60
2021/08/02 12:20:54;;;;;;;43.42;5.82;;;21.30;72.60;;;;;;4961721;28;20046;-60
2021/08/02 12:23:26;;;;;;;47.80;6.30;;;21.40;73.50;;;;;;4978307;28;20037;-60
2021/08/02 12:25:52;;;;;;;41.95;6.07;;;21.50;72.60;;;;;;4980544;28;20135;-60
2021/08/02 12:28:18;;;;;;;42.08;6.22;;;21.50;72.60;;;;;;4984383;28;20041;-59
2021/08/02 12:30:44;;;;;;;19.45;5.35;;;21.50;71.90;;;;;;4966966;28;20061;-60
2021/08/02 12:33:11;;;;;;;30.20;6.15;;;21.50;71.50;;;;;;4983081;28;20026;-60
2021/08/02 12:35:36;;;;;;;17.33;5.38;;;21.50;71.70;;;;;;4966041;28;20094;-60
2021/08/02 12:38:03;;;;;;;24.05;5.45;;;21.50;72.40;;;;;;4981468;28;20052;-60
2021/08/02 12:40:29;;;;;;;25.33;5.65;;;21.60;71.20;;;;;;4983264;28;20030;-60